Terminal Aerodrome Forecast
Issued by NWS

Home | Current Version | Previous Version | Text Only | Print | Product List | Glossary On
Versions: 1 2 3 4 5 6 7 8 9 10 11 12 13 14 15
000
FTUS44 KBMX 200520
TAFEET
TAF
KEET 200520Z 2006/2106 00000KT 6SM BR SKC
      TEMPO 2007/2009 4SM BR
     FM200900 00000KT 4SM BR SKC
     FM201400 VRB03KT P6SM FEW040=

USA.gov is the U.S. government's official web portal to all federal, state and local government web resources and services.